Beachmont, Massachusetts
Current Conditions -  °F | °C
As of 11:54 AM on Saturday 22 Nov 2014 (Local Time) from KBOS Reporting Station
Broken Clouds Broken Clouds  
Wind Chill: 27°   Ceiling: 14000
Heat Index: 37°   Visibility: 10mi
Dew Point: 10°   Wind: 17mph
Humidity: 33%   Direction: 220°SW
Pressure: 30.26"   Gusts: NA
Location:  42.4188°N, 71.0044°W
Report Text: KBOS 221654Z 22015KT 10SM FEW070 BKN140 BKN220 03/M12 A3026 RMK AO2 PRESFR SLP245 T00281122
Loading
Personal Weather Stations






























Interactive Weather Map New forecast layout! Learn more

10-Day Weather Forecast

Advertisements
Track Severe Weather on mobile